Terminal Aerodrome Forecast
Issued by NWS Jackson, MS

Current Version | Previous Version | Text Only | Print | Product List | Glossary On
Versions: 1 2 3 4 5 6 7 8 9 10 11 12 13 14
000
FTUS44 KJAN 011700
TAFGWO
TAF
KGWO 011737Z 0118/0218 09005KT 4SM -RA OVC006
     FM012000 03005KT 4SM BR VCSH OVC005
     FM012300 02005KT 3SM -SHRA OVC005
     FM020900 02011KT 5SM -RA OVC004=

USA.gov is the U.S. government's official web portal to all federal, state and local government web resources and services.